Time;durP1;ratioP1;P1;durP2;ratioP2;P2;SDS_P1;SDS_P2;PMS_P1;PMS_P2;Temp;Humidity;BMP_temperature;BMP_pressure;BME280_temperature;BME280_humidity;BME280_pressure;Samples;Min_cycle;Max_cycle;Signal;HPM_P1;HPM_P2
2021/10/07 00:00:57;;;;;;;2.33;1.42;;;;;;;-145.80;100.00;59141.28;4999518;28;20065;-79
2021/10/07 00:03:25;;;;;;;2.00;1.33;;;;;;;-145.80;100.00;59141.28;5015647;28;20054;-79
2021/10/07 00:05:53;;;;;;;2.55;1.65;;;;;;;-145.80;100.00;59141.28;4998333;28;20070;-77
2021/10/07 00:08:22;;;;;;;2.33;1.30;;;;;;;-145.80;100.00;59141.28;5012939;28;20434;-80
2021/10/07 00:10:50;;;;;;;2.63;1.90;;;;;;;-145.80;100.00;59141.28;4997510;28;20165;-76
2021/10/07 00:13:18;;;;;;;2.65;1.63;;;;;;;-145.80;100.00;59141.28;5000838;28;20054;-76
2021/10/07 00:15:46;;;;;;;1.85;1.20;;;;;;;-145.80;100.00;59141.28;5001139;28;20053;-78
2021/10/07 00:18:14;;;;;;;2.28;1.42;;;;;;;-145.80;100.00;59141.28;4984291;28;20058;-78
2021/10/07 00:20:43;;;;;;;2.38;1.40;;;;;;;-145.80;100.00;59141.28;5000331;28;20047;-78
2021/10/07 00:23:13;;;;;;;2.45;2.03;;;;;;;-145.80;100.00;59141.28;4992998;28;20057;-78
2021/10/07 00:25:42;;;;;;;4.18;1.92;;;;;;;-145.80;100.00;59141.28;4998373;28;20143;-77
2021/10/07 00:28:11;;;;;;;2.03;1.52;;;;;;;-145.80;100.00;59141.28;4999873;28;20054;-76
2021/10/07 00:30:40;;;;;;;2.42;1.63;;;;;;;-145.80;100.00;59141.28;4998882;28;20047;-77
2021/10/07 00:33:14;;;;;;;2.45;1.40;;;;;;;-145.80;100.00;59141.28;4998694;28;20073;-77
2021/10/07 00:35:47;;;;;;;2.05;1.20;;;;;;;-145.80;100.00;59141.28;4999771;28;20458;-79
2021/10/07 00:41:03;;;;;;;3.27;1.63;;;;;;;-145.80;100.00;59141.28;4998502;28;20431;-78
2021/10/07 00:43:31;;;;;;;2.10;1.50;;;;;;;-145.80;100.00;59141.28;4995704;28;20300;-75
2021/10/07 00:46:01;;;;;;;2.05;1.50;;;;;;;-145.80;100.00;59141.28;4986196;28;20061;-78
2021/10/07 00:48:28;;;;;;;2.70;1.48;;;;;;;-145.80;100.00;59141.28;4986064;28;20057;-78
2021/10/07 00:50:57;;;;;;;2.15;1.33;;;;;;;-145.80;100.00;59141.28;4989900;28;20058;-78
2021/10/07 00:53:25;;;;;;;2.70;1.55;;;;;;;-145.80;100.00;59141.28;4991674;28;20070;-79
2021/10/07 00:55:52;;;;;;;1.55;1.02;;;;;;;-145.80;100.00;59141.28;4995288;28;20431;-76
2021/10/07 00:58:22;;;;;;;1.80;1.30;;;;;;;-145.80;100.00;59141.28;5009662;28;20051;-78
2021/10/07 01:00:54;;;;;;;1.92;1.27;;;;;;;-145.80;100.00;59141.28;4990724;28;20411;-76
2021/10/07 01:03:22;;;;;;;3.40;1.70;;;;;;;-145.80;100.00;59141.28;4990851;28;20069;-77
2021/10/07 01:05:50;;;;;;;1.38;1.13;;;;;;;-145.80;100.00;59141.28;4996450;28;20070;-79
2021/10/07 01:08:18;;;;;;;2.33;1.40;;;;;;;-145.80;100.00;59141.28;4997478;28;20058;-77
2021/10/07 01:10:45;;;;;;;2.05;1.20;;;;;;;-145.80;100.00;59141.28;4996878;28;20058;-79
2021/10/07 01:13:13;;;;;;;2.40;1.58;;;;;;;-145.80;100.00;59141.28;4998204;28;20046;-79
2021/10/07 01:15:42;;;;;;;2.15;1.30;;;;;;;-145.80;100.00;59141.28;4998768;28;20057;-76
2021/10/07 01:18:10;;;;;;;2.20;1.75;;;;;;;-145.80;100.00;59141.28;4994107;28;20050;-77
2021/10/07 01:20:41;;;;;;;1.67;1.33;;;;;;;-145.80;100.00;59141.28;4991110;28;20038;-77
2021/10/07 01:23:09;;;;;;;1.92;1.15;;;;;;;-145.80;100.00;59141.28;4999490;28;20185;-79
2021/10/07 01:25:37;;;;;;;2.53;1.63;;;;;;;-145.80;100.00;59141.28;5000868;28;20057;-80
2021/10/07 01:28:05;;;;;;;2.50;1.70;;;;;;;-145.80;100.00;59141.28;5000715;28;20054;-79
2021/10/07 01:30:33;;;;;;;2.20;1.35;;;;;;;-145.80;100.00;59141.28;5002263;28;20042;-77
2021/10/07 01:33:01;;;;;;;2.17;1.38;;;;;;;-145.80;100.00;59141.28;4999197;28;20080;-78
2021/10/07 01:35:29;;;;;;;2.15;1.38;;;;;;;-145.80;100.00;59141.28;4998789;28;20760;-77
2021/10/07 01:37:58;;;;;;;2.05;1.23;;;;;;;-145.80;100.00;59141.28;5004793;28;20057;-78
2021/10/07 01:40:26;;;;;;;1.58;1.30;;;;;;;-145.80;100.00;59141.28;5008727;28;20054;-80
2021/10/07 01:42:54;;;;;;;2.13;1.30;;;;;;;-145.80;100.00;59141.28;5005828;28;20068;-80
2021/10/07 01:45:22;;;;;;;2.45;1.48;;;;;;;-145.80;100.00;59141.28;5003751;28;20058;-78
2021/10/07 01:47:50;;;;;;;1.83;1.35;;;;;;;-145.80;100.00;59141.28;4997879;28;20066;-79
2021/10/07 01:50:18;;;;;;;2.17;1.33;;;;;;;-145.80;100.00;59141.28;5003062;28;20052;-77
2021/10/07 01:52:46;;;;;;;1.35;1.10;;;;;;;-145.80;100.00;59141.28;5004529;28;20054;-79
2021/10/07 01:55:15;;;;;;;2.20;1.40;;;;;;;-145.80;100.00;59141.28;5027468;28;20065;-78
2021/10/07 01:57:42;;;;;;;2.08;1.35;;;;;;;-145.80;100.00;59141.28;5002914;28;20057;-78
2021/10/07 02:00:12;;;;;;;2.13;1.38;;;;;;;-145.80;100.00;59141.28;5014860;28;20054;-76
2021/10/07 02:02:40;;;;;;;2.15;1.42;;;;;;;-145.80;100.00;59141.28;5003367;28;20058;-78
2021/10/07 02:05:08;;;;;;;2.17;1.40;;;;;;;-145.80;100.00;59141.28;5004681;28;20066;-76
2021/10/07 02:07:36;;;;;;;1.83;1.15;;;;;;;-145.80;100.00;59141.28;5005119;28;20068;-78
2021/10/07 02:10:08;;;;;;;2.03;1.17;;;;;;;-145.80;100.00;59141.28;5004964;28;20054;-79
2021/10/07 02:12:37;;;;;;;1.77;1.45;;;;;;;-145.80;100.00;59141.28;4995766;28;20054;-79
2021/10/07 02:15:06;;;;;;;1.80;1.48;;;;;;;-145.80;100.00;59141.28;5000415;28;20089;-78
2021/10/07 02:17:35;;;;;;;1.92;1.20;;;;;;;-145.80;100.00;59141.28;5010238;28;20538;-76
2021/10/07 02:20:02;;;;;;;3.13;1.33;;;;;;;-145.80;100.00;59141.28;5004861;28;20057;-75
2021/10/07 02:22:30;;;;;;;1.90;1.35;;;;;;;-145.80;100.00;59141.28;5000021;28;20065;-76
2021/10/07 02:24:58;;;;;;;1.95;1.33;;;;;;;-145.80;100.00;59141.28;5000977;28;20058;-78
2021/10/07 02:27:27;;;;;;;2.30;1.17;;;;;;;-145.80;100.00;59141.28;5004582;28;20058;-77
2021/10/07 02:29:56;;;;;;;1.90;1.27;;;;;;;-145.80;100.00;59141.28;5002570;28;20519;-78
2021/10/07 02:32:23;;;;;;;1.75;1.40;;;;;;;-145.80;100.00;59141.28;5003693;28;20411;-78
2021/10/07 02:34:51;;;;;;;2.58;1.50;;;;;;;-145.80;100.00;59141.28;5003642;28;20046;-77
2021/10/07 02:37:19;;;;;;;2.35;1.45;;;;;;;-145.80;100.00;59141.28;5004865;28;20058;-79
2021/10/07 02:39:47;;;;;;;2.60;1.40;;;;;;;-145.80;100.00;59141.28;5018172;28;20053;-79
2021/10/07 02:42:15;;;;;;;2.42;1.55;;;;;;;-145.80;100.00;59141.28;5001644;28;20054;-79
2021/10/07 02:44:42;;;;;;;2.00;1.23;;;;;;;-145.80;100.00;59141.28;4998249;28;20051;-79
2021/10/07 02:47:14;;;;;;;2.65;1.38;;;;;;;-145.80;100.00;59141.28;5025634;28;20058;-80
2021/10/07 02:49:42;;;;;;;1.95;1.50;;;;;;;-145.80;100.00;59141.28;4994873;28;20089;-80
2021/10/07 02:52:09;;;;;;;1.77;1.10;;;;;;;-145.80;100.00;59141.28;5004360;28;20046;-79
2021/10/07 02:54:37;;;;;;;2.22;1.35;;;;;;;-145.80;100.00;59141.28;5004107;28;20050;-79
2021/10/07 02:57:05;;;;;;;2.95;1.60;;;;;;;-145.80;100.00;59141.28;5004480;28;20088;-80
2021/10/07 02:59:33;;;;;;;2.70;1.48;;;;;;;-145.80;100.00;59141.28;5004877;28;20058;-78
2021/10/07 03:02:00;;;;;;;1.67;1.20;;;;;;;-145.80;100.00;59141.28;5003252;28;20077;-78
2021/10/07 03:04:30;;;;;;;1.75;1.50;;;;;;;-145.80;100.00;59141.28;5004372;28;20062;-79
2021/10/07 03:06:57;;;;;;;2.30;1.25;;;;;;;-145.80;100.00;59141.28;5002760;28;20054;-79
2021/10/07 03:09:25;;;;;;;2.85;1.40;;;;;;;-145.80;100.00;59141.28;5000531;28;20077;-79
2021/10/07 03:11:53;;;;;;;2.70;1.40;;;;;;;-145.80;100.00;59141.28;5003357;28;20046;-78
2021/10/07 03:14:20;;;;;;;2.75;1.48;;;;;;;-145.80;100.00;59141.28;4996969;28;20068;-78
2021/10/07 03:16:48;;;;;;;1.67;0.98;;;;;;;-145.80;100.00;59141.28;5004306;28;20057;-77
2021/10/07 03:19:16;;;;;;;2.83;1.73;;;;;;;-145.80;100.00;59141.28;5003593;28;20054;-75
2021/10/07 03:21:45;;;;;;;2.10;1.48;;;;;;;-145.80;100.00;59141.28;5001331;28;20054;-79
2021/10/07 03:24:12;;;;;;;1.25;1.00;;;;;;;-145.80;100.00;59141.28;5002678;28;20057;-79
2021/10/07 03:26:40;;;;;;;1.95;1.20;;;;;;;-145.80;100.00;59141.28;4998257;28;20045;-77
2021/10/07 03:29:08;;;;;;;1.98;1.20;;;;;;;-145.80;100.00;59141.28;5003158;28;20073;-79
2021/10/07 03:31:37;;;;;;;2.65;1.60;;;;;;;-145.80;100.00;59141.28;5002828;28;20050;-78
2021/10/07 03:34:05;;;;;;;3.00;1.77;;;;;;;-145.80;100.00;59141.28;5002137;28;20058;-77
2021/10/07 03:36:34;;;;;;;2.20;1.75;;;;;;;-145.80;100.00;59141.28;5001365;28;20055;-77
2021/10/07 03:39:03;;;;;;;2.03;1.30;;;;;;;-145.80;100.00;59141.28;5000568;28;20057;-74
2021/10/07 03:41:31;;;;;;;2.45;1.65;;;;;;;-145.80;100.00;59141.28;5017441;28;20057;-77
2021/10/07 03:43:58;;;;;;;2.15;1.48;;;;;;;-145.80;100.00;59141.28;5000012;28;20069;-79
2021/10/07 03:46:27;;;;;;;2.22;1.30;;;;;;;-145.80;100.00;59141.28;4989089;28;20069;-80
2021/10/07 03:48:55;;;;;;;2.00;1.05;;;;;;;-145.80;100.00;59141.28;4990620;28;20507;-73
2021/10/07 03:51:22;;;;;;;2.35;1.35;;;;;;;-145.80;100.00;59141.28;4983178;28;20503;-79
2021/10/07 03:53:50;;;;;;;2.70;1.40;;;;;;;-145.80;100.00;59141.28;4982702;28;20061;-79
2021/10/07 03:56:19;;;;;;;2.30;1.35;;;;;;;-145.80;100.00;59141.28;4988689;28;20439;-79
2021/10/07 03:58:47;;;;;;;2.15;1.30;;;;;;;-145.80;100.00;59141.28;4984395;28;20490;-81
2021/10/07 04:01:14;;;;;;;2.08;1.55;;;;;;;-145.80;100.00;59141.28;4993230;28;20065;-79
2021/10/07 04:03:45;;;;;;;3.40;1.52;;;;;;;-145.80;100.00;59141.28;4977722;28;20421;-78
2021/10/07 04:06:12;;;;;;;1.88;1.20;;;;;;;-145.80;100.00;59141.28;4988971;28;20058;-78
2021/10/07 04:08:40;;;;;;;2.72;1.35;;;;;;;-145.80;100.00;59141.28;4983118;28;20058;-78
2021/10/07 04:11:08;;;;;;;2.05;1.30;;;;;;;-145.80;100.00;59141.28;4984558;28;20065;-77
2021/10/07 04:13:37;;;;;;;2.65;1.50;;;;;;;-145.80;100.00;59141.28;4981775;28;20057;-78
2021/10/07 04:16:05;;;;;;;2.33;1.30;;;;;;;-145.80;100.00;59141.28;4988930;28;20054;-79
2021/10/07 04:18:33;;;;;;;2.17;1.25;;;;;;;-145.80;100.00;59141.28;4984040;28;20068;-79
2021/10/07 04:21:00;;;;;;;2.15;1.38;;;;;;;-145.80;100.00;59141.28;4979923;28;20062;-75
2021/10/07 04:23:28;;;;;;;2.20;1.50;;;;;;;-145.80;100.00;59141.28;4980158;28;20431;-77
2021/10/07 04:25:56;;;;;;;1.88;1.20;;;;;;;-145.80;100.00;59141.28;4980982;28;20058;-79
2021/10/07 04:28:24;;;;;;;2.92;1.92;;;;;;;-145.80;100.00;59141.28;4990290;28;20058;-79
2021/10/07 04:30:53;;;;;;;2.33;1.50;;;;;;;-145.80;100.00;59141.28;4983589;28;20070;-75
2021/10/07 04:33:21;;;;;;;2.58;1.60;;;;;;;-145.80;100.00;59141.28;4986411;28;20444;-78
2021/10/07 04:35:49;;;;;;;2.60;1.80;;;;;;;-145.80;100.00;59141.28;5002219;28;20067;-79
2021/10/07 04:38:17;;;;;;;2.20;1.38;;;;;;;-145.80;100.00;59141.28;4986818;28;20053;-79
2021/10/07 04:40:45;;;;;;;2.08;1.30;;;;;;;-145.80;100.00;59141.28;5004254;28;20054;-79
2021/10/07 04:43:13;;;;;;;1.98;1.30;;;;;;;-145.80;100.00;59141.28;4987610;28;20054;-79
2021/10/07 04:45:41;;;;;;;2.72;1.75;;;;;;;-145.80;100.00;59141.28;4975895;28;20050;-78
2021/10/07 04:48:12;;;;;;;1.98;1.40;;;;;;;-145.80;100.00;59141.28;4989920;28;20058;-77
2021/10/07 04:50:39;;;;;;;1.98;1.45;;;;;;;-145.80;100.00;59141.28;4975713;28;20070;-78
2021/10/07 04:53:07;;;;;;;3.63;1.98;;;;;;;-145.80;100.00;59141.28;4980769;28;20062;-77
2021/10/07 04:55:35;;;;;;;2.20;1.40;;;;;;;-145.80;100.00;59141.28;4985585;28;20511;-78
2021/10/07 04:58:02;;;;;;;2.03;1.20;;;;;;;-145.80;100.00;59141.28;4968834;28;20078;-73
2021/10/07 05:00:30;;;;;;;2.80;1.83;;;;;;;-145.80;100.00;59141.28;4980541;28;20055;-72
2021/10/07 05:02:58;;;;;;;3.08;1.70;;;;;;;-145.80;100.00;59141.28;4983607;28;20701;-79
2021/10/07 05:05:28;;;;;;;3.60;1.75;;;;;;;-145.80;100.00;59141.28;5000901;28;20050;-78
2021/10/07 05:07:56;;;;;;;2.00;1.55;;;;;;;-145.80;100.00;59141.28;4986184;28;20070;-77
2021/10/07 05:10:24;;;;;;;1.80;1.30;;;;;;;-145.80;100.00;59141.28;4974958;28;20061;-78
2021/10/07 05:12:52;;;;;;;2.13;1.38;;;;;;;-145.80;100.00;59141.28;5002814;28;20065;-77
2021/10/07 05:15:21;;;;;;;2.72;1.77;;;;;;;-145.80;100.00;59141.28;4981260;28;20046;-76
2021/10/07 05:17:49;;;;;;;2.25;1.58;;;;;;;-145.80;100.00;59141.28;4999995;28;20073;-76
2021/10/07 05:20:17;;;;;;;2.78;1.67;;;;;;;-145.80;100.00;59141.28;4983939;28;20065;-75
2021/10/07 05:22:46;;;;;;;2.25;1.40;;;;;;;-145.80;100.00;59141.28;4991351;28;20038;-77
2021/10/07 05:25:15;;;;;;;3.15;1.98;;;;;;;-145.80;100.00;59141.28;4985034;28;20062;-77
2021/10/07 05:27:42;;;;;;;2.80;1.92;;;;;;;-145.80;100.00;59141.28;4981316;28;20054;-73
2021/10/07 05:30:10;;;;;;;1.92;1.63;;;;;;;-145.80;100.00;59141.28;4993873;28;20050;-75
2021/10/07 05:32:38;;;;;;;2.78;1.65;;;;;;;-145.80;100.00;59141.28;4983215;28;20407;-78
2021/10/07 05:35:08;;;;;;;2.03;1.20;;;;;;;-145.80;100.00;59141.28;4985488;28;20082;-76
2021/10/07 05:37:35;;;;;;;2.47;1.73;;;;;;;-145.80;100.00;59141.28;4987577;28;20542;-75
2021/10/07 05:40:07;;;;;;;1.75;1.38;;;;;;;-145.80;100.00;59141.28;4982639;28;20055;-81
2021/10/07 05:42:38;;;;;;;2.00;1.42;;;;;;;-145.80;100.00;59141.28;4975953;28;20074;-75
2021/10/07 05:45:10;;;;;;;3.47;1.40;;;;;;;-145.80;100.00;59141.28;4977746;28;20392;-79
2021/10/07 05:47:39;;;;;;;4.65;1.70;;;;;;;-145.80;100.00;59141.28;4979498;28;20054;-77
2021/10/07 05:50:08;;;;;;;2.75;1.60;;;;;;;-145.80;100.00;59141.28;4983188;28;20043;-75
2021/10/07 05:52:36;;;;;;;2.13;1.40;;;;;;;-145.80;100.00;59141.28;4975241;28;20529;-79
2021/10/07 05:55:07;;;;;;;2.28;1.35;;;;;;;-145.80;100.00;59141.28;4986063;28;20050;-77
2021/10/07 05:57:35;;;;;;;3.17;1.60;;;;;;;-145.80;100.00;59141.28;4997405;28;20495;-76
2021/10/07 06:00:06;;;;;;;2.50;1.50;;;;;;;-145.80;100.00;59141.28;4979421;28;20566;-75
2021/10/07 06:02:40;;;;;;;2.63;1.48;;;;;;;-145.80;100.00;59141.28;4981588;28;20066;-77
2021/10/07 06:05:10;;;;;;;3.67;1.88;;;;;;;-145.80;100.00;59141.28;4996539;28;20061;-76
2021/10/07 06:07:38;;;;;;;3.75;1.95;;;;;;;-145.80;100.00;59141.28;4994671;28;20050;-79
2021/10/07 06:10:09;;;;;;;3.15;2.03;;;;;;;-145.80;100.00;59141.28;4990084;28;20055;-73
2021/10/07 06:12:41;;;;;;;3.33;2.22;;;;;;;-145.80;100.00;59141.28;4991802;28;20055;-72
2021/10/07 06:15:10;;;;;;;4.13;2.17;;;;;;;-145.80;100.00;59141.28;4993517;28;20047;-71
2021/10/07 06:17:37;;;;;;;4.63;2.65;;;;;;;-145.80;100.00;59141.28;5006151;28;20038;-75
2021/10/07 06:20:16;;;;;;;3.50;2.03;;;;;;;-145.80;100.00;59141.28;4998880;28;20126;-74
2021/10/07 06:22:44;;;;;;;3.65;2.35;;;;;;;-145.80;100.00;59141.28;4991876;28;20058;-80
2021/10/07 06:25:13;;;;;;;3.63;2.22;;;;;;;-145.80;100.00;59141.28;4984647;28;20058;-73
2021/10/07 06:27:42;;;;;;;3.60;2.55;;;;;;;-145.80;100.00;59141.28;4995006;28;20061;-73
2021/10/07 06:30:12;;;;;;;5.15;2.63;;;;;;;-145.80;100.00;59141.28;5000693;28;20050;-72
2021/10/07 06:32:39;;;;;;;4.38;2.75;;;;;;;-145.80;100.00;59141.28;4985754;28;20058;-75
2021/10/07 06:35:08;;;;;;;3.22;2.50;;;;;;;-145.80;100.00;59141.28;4987054;28;20046;-72
2021/10/07 06:37:37;;;;;;;6.40;3.08;;;;;;;-145.80;100.00;59141.28;5002072;28;20047;-74
2021/10/07 06:40:06;;;;;;;4.47;2.63;;;;;;;-145.80;100.00;59141.28;4990573;28;20061;-75
2021/10/07 06:42:36;;;;;;;4.65;2.72;;;;;;;-145.80;100.00;59141.28;5004095;28;20054;-73
2021/10/07 06:45:05;;;;;;;3.65;2.53;;;;;;;-145.80;100.00;59141.28;4980366;28;20055;-77
2021/10/07 06:47:35;;;;;;;3.35;2.50;;;;;;;-145.80;100.00;59141.28;4984228;28;20062;-76
2021/10/07 06:50:03;;;;;;;3.97;2.42;;;;;;;-145.80;100.00;59141.28;4991198;28;20047;-75
2021/10/07 06:52:32;;;;;;;5.18;3.13;;;;;;;-145.80;100.00;59141.28;4985690;28;20050;-77
2021/10/07 06:55:01;;;;;;;4.13;2.53;;;;;;;-145.80;100.00;59141.28;4966396;28;20050;-74
2021/10/07 06:57:30;;;;;;;4.95;2.88;;;;;;;-145.80;100.00;59141.28;4991136;28;20058;-74
2021/10/07 07:00:00;;;;;;;5.43;2.60;;;;;;;-145.80;100.00;59141.28;4971894;28;20065;-78
2021/10/07 07:02:30;;;;;;;4.10;3.17;;;;;;;-145.80;100.00;59141.28;4990440;28;20054;-76
2021/10/07 07:04:58;;;;;;;6.30;2.85;;;;;;;-145.80;100.00;59141.28;4973738;28;20051;-79
2021/10/07 07:07:27;;;;;;;4.57;2.83;;;;;;;-145.80;100.00;59141.28;4971732;28;20380;-77
2021/10/07 07:09:56;;;;;;;5.25;2.92;;;;;;;-145.80;100.00;59141.28;4976788;28;20455;-73
2021/10/07 07:12:33;;;;;;;5.40;2.67;;;;;;;-145.80;100.00;59141.28;4977501;28;20085;-78
2021/10/07 07:15:04;;;;;;;5.13;2.63;;;;;;;-145.80;100.00;59141.28;4983625;28;21983;-75
2021/10/07 07:17:50;;;;;;;5.15;2.78;;;;;;;-145.80;100.00;59141.28;4993496;28;20051;-80
2021/10/07 07:20:20;;;;;;;4.35;2.67;;;;;;;-145.80;100.00;59141.28;4931648;28;20078;-75
2021/10/07 07:22:48;;;;;;;5.15;2.95;;;;;;;-145.80;100.00;59141.28;4975979;28;20070;-74
2021/10/07 07:25:17;;;;;;;5.07;2.67;;;;;;;-145.80;100.00;59141.28;4964311;28;20051;-74
2021/10/07 07:27:45;;;;;;;3.83;2.72;;;;;;;-145.80;100.00;59141.28;4964526;28;20069;-75
2021/10/07 07:30:14;;;;;;;4.43;2.60;;;;;;;-145.80;100.00;59141.28;4967694;28;20050;-78
2021/10/07 07:32:43;;;;;;;3.85;2.40;;;;;;;-145.80;100.00;59141.28;4973870;28;20054;-74
2021/10/07 07:35:11;;;;;;;4.03;2.90;;;;;;;-145.80;100.00;59141.28;4970679;28;20054;-78
2021/10/07 07:37:39;;;;;;;4.00;2.50;;;;;;;-145.80;100.00;59141.28;4954198;28;20059;-77
2021/10/07 07:40:09;;;;;;;3.63;2.40;;;;;;;-145.80;100.00;59141.28;4980813;28;20069;-72
2021/10/07 07:42:38;;;;;;;3.95;2.38;;;;;;;-145.80;100.00;59141.28;4996948;28;20046;-75
2021/10/07 07:45:08;;;;;;;3.63;2.40;;;;;;;-145.80;100.00;59141.28;4971356;28;20401;-75
2021/10/07 07:47:41;;;;;;;3.33;2.30;;;;;;;-145.80;100.00;59141.28;4972304;28;20808;-75
2021/10/07 07:50:18;;;;;;;7.28;2.83;;;;;;;-145.80;100.00;59141.28;4969549;28;20458;-76
2021/10/07 07:52:48;;;;;;;4.82;2.75;;;;;;;-145.80;100.00;59141.28;4970247;28;20074;-76
2021/10/07 07:55:24;;;;;;;3.30;2.33;;;;;;;-145.80;100.00;59141.28;4949516;28;20065;-73
2021/10/07 07:57:53;;;;;;;3.60;2.40;;;;;;;-145.80;100.00;59141.28;4961780;28;20054;-75
2021/10/07 08:00:22;;;;;;;6.20;2.88;;;;;;;-145.80;100.00;59141.28;4962994;28;20066;-77
2021/10/07 08:02:51;;;;;;;3.95;2.58;;;;;;;-145.80;100.00;59141.28;4950666;28;20063;-73
2021/10/07 08:05:19;;;;;;;5.55;2.60;;;;;;;-145.80;100.00;59141.28;4962711;28;20053;-75
2021/10/07 08:07:48;;;;;;;4.05;2.58;;;;;;;-145.80;100.00;59141.28;4964849;28;20054;-73
2021/10/07 08:10:18;;;;;;;4.47;2.78;;;;;;;-145.80;100.00;59141.28;4967520;28;20121;-76
2021/10/07 08:12:46;;;;;;;10.98;2.53;;;;;;;-145.80;100.00;59141.28;4965747;28;20062;-75
2021/10/07 08:15:18;;;;;;;3.92;2.55;;;;;;;-145.80;100.00;59141.28;4967992;28;21019;-75
2021/10/07 08:17:46;;;;;;;4.97;2.35;;;;;;;-145.80;100.00;59141.28;4959773;28;20077;-75
2021/10/07 08:20:16;;;;;;;4.18;2.42;;;;;;;-145.80;100.00;59141.28;4964438;28;20050;-75
2021/10/07 08:22:47;;;;;;;3.60;2.58;;;;;;;-145.80;100.00;59141.28;4950469;28;20070;-73
2021/10/07 08:25:15;;;;;;;3.80;2.80;;;;;;;-145.80;100.00;59141.28;4962993;28;20061;-73
2021/10/07 08:27:45;;;;;;;6.28;2.58;;;;;;;-145.80;100.00;59141.28;4962523;28;20054;-74
2021/10/07 08:30:14;;;;;;;4.68;3.00;;;;;;;-145.80;100.00;59141.28;4973905;28;20443;-74
2021/10/07 08:32:44;;;;;;;4.65;2.42;;;;;;;-145.80;100.00;59141.28;4961669;28;20054;-74
2021/10/07 08:35:16;;;;;;;5.70;2.72;;;;;;;-145.80;100.00;59141.28;4964453;28;20054;-74
2021/10/07 08:37:44;;;;;;;4.13;2.40;;;;;;;-145.80;100.00;59141.28;4961179;28;20537;-75
2021/10/07 08:40:15;;;;;;;4.70;3.30;;;;;;;-145.80;100.00;59141.28;4966626;28;20062;-76
2021/10/07 08:42:44;;;;;;;4.55;2.33;;;;;;;-145.80;100.00;59141.28;4969609;28;20507;-74
2021/10/07 08:45:15;;;;;;;5.07;2.63;;;;;;;-145.80;100.00;59141.28;4968664;28;20200;-75
2021/10/07 08:47:45;;;;;;;4.20;2.70;;;;;;;-145.80;100.00;59141.28;4974073;28;20069;-74
2021/10/07 08:50:17;;;;;;;3.90;2.65;;;;;;;-145.80;100.00;59141.28;4970690;28;21997;-76
2021/10/07 08:52:48;;;;;;;4.50;2.60;;;;;;;-145.80;100.00;59141.28;4968993;28;20050;-73
2021/10/07 08:55:18;;;;;;;5.75;2.70;;;;;;;-145.80;100.00;59141.28;4955183;28;20360;-74
2021/10/07 08:57:46;;;;;;;4.20;2.47;;;;;;;-145.80;100.00;59141.28;4970297;28;20062;-76
2021/10/07 09:00:17;;;;;;;4.35;2.75;;;;;;;-145.80;100.00;59141.28;4981877;28;20062;-75
2021/10/07 09:02:47;;;;;;;3.78;2.03;;;;;;;-145.80;100.00;59141.28;4966339;28;20042;-76
2021/10/07 09:05:22;;;;;;;4.93;2.92;;;;;;;-145.80;100.00;59141.28;4972905;28;20051;-73
2021/10/07 09:08:01;;;;;;;4.78;2.95;;;;;;;-145.80;100.00;59141.28;4966667;28;20065;-72
2021/10/07 09:10:42;;;;;;;5.80;2.60;;;;;;;-145.80;100.00;59141.28;4966553;28;20054;-74
2021/10/07 09:13:12;;;;;;;5.80;3.08;;;;;;;-145.80;100.00;59141.28;4961135;28;20058;-76
2021/10/07 09:15:44;;;;;;;6.07;2.40;;;;;;;-145.80;100.00;59141.28;4952239;28;20432;-75
2021/10/07 09:18:13;;;;;;;4.95;2.67;;;;;;;-145.80;100.00;59141.28;4958006;28;20062;-74
2021/10/07 09:20:44;;;;;;;6.28;2.83;;;;;;;-145.80;100.00;59141.28;4962525;28;20054;-75
2021/10/07 09:23:12;;;;;;;4.70;2.88;;;;;;;-145.80;100.00;59141.28;4962815;28;20062;-73
2021/10/07 09:26:06;;;;;;;3.33;2.03;;;;;;;-145.80;100.00;59141.28;4965946;28;20057;-75
2021/10/07 09:28:50;;;;;;;4.65;2.53;;;;;;;-145.80;100.00;59141.28;4946996;28;20050;-74
2021/10/07 09:31:26;;;;;;;3.45;2.60;;;;;;;-145.80;100.00;59141.28;4972292;28;20054;-71
2021/10/07 09:33:55;;;;;;;4.68;2.70;;;;;;;-145.80;100.00;59141.28;4961838;28;20062;-72
2021/10/07 09:36:26;;;;;;;4.25;3.08;;;;;;;-145.80;100.00;59141.28;4960889;28;20076;-72
2021/10/07 09:38:55;;;;;;;6.00;3.30;;;;;;;-145.80;100.00;59141.28;4968826;28;20046;-73
2021/10/07 09:41:25;;;;;;;3.70;2.53;;;;;;;-145.80;100.00;59141.28;4968268;28;20065;-72
2021/10/07 09:43:54;;;;;;;3.33;2.17;;;;;;;-145.80;100.00;59141.28;4964500;28;20054;-73
2021/10/07 09:46:44;;;;;;;4.63;2.80;;;;;;;-145.80;100.00;59141.28;4963330;28;20073;-76
2021/10/07 09:49:14;;;;;;;4.32;2.65;;;;;;;-145.80;100.00;59141.28;4962034;28;20063;-73
2021/10/07 09:51:44;;;;;;;3.58;2.67;;;;;;;-145.80;100.00;59141.28;4957481;28;21006;-74
2021/10/07 09:54:12;;;;;;;6.00;3.08;;;;;;;-145.80;100.00;59141.28;4963235;28;20062;-74
2021/10/07 09:56:40;;;;;;;4.32;3.17;;;;;;;-145.80;100.00;59141.28;4946291;28;20046;-74
2021/10/07 09:59:12;;;;;;;5.97;3.75;;;;;;;-145.80;100.00;59141.28;4957533;28;20062;-75
2021/10/07 10:01:42;;;;;;;5.28;2.28;;;;;;;-145.80;100.00;59141.28;4945826;28;20054;-79
2021/10/07 10:04:10;;;;;;;6.03;3.33;;;;;;;-145.80;100.00;59141.28;4978656;28;20065;-75
2021/10/07 10:06:40;;;;;;;3.90;2.55;;;;;;;-145.80;100.00;59141.28;4965114;28;20067;-75
2021/10/07 10:09:11;;;;;;;4.45;3.10;;;;;;;-145.80;100.00;59141.28;4960224;28;20062;-74
2021/10/07 10:11:41;;;;;;;7.95;3.28;;;;;;;-145.80;100.00;59141.28;4958759;28;20052;-74
2021/10/07 10:14:10;;;;;;;6.82;3.13;;;;;;;-145.80;100.00;59141.28;4958930;28;20065;-75
2021/10/07 10:16:38;;;;;;;5.55;2.85;;;;;;;-145.80;100.00;59141.28;4978394;28;20804;-76
2021/10/07 10:19:07;;;;;;;5.50;3.03;;;;;;;-145.80;100.00;59141.28;4973359;28;20490;-74
2021/10/07 10:21:41;;;;;;;5.00;3.15;;;;;;;-145.80;100.00;59141.28;4974552;28;20069;-75
2021/10/07 10:24:10;;;;;;;5.88;3.42;;;;;;;-145.80;100.00;59141.28;4960546;28;20046;-76
2021/10/07 10:26:41;;;;;;;4.85;3.25;;;;;;;-145.80;100.00;59141.28;4962636;28;20069;-77
2021/10/07 10:29:19;;;;;;;4.75;3.20;;;;;;;-145.80;100.00;59141.28;4954595;28;20058;-73
2021/10/07 10:31:51;;;;;;;7.53;3.30;;;;;;;-145.80;100.00;59141.28;4942479;28;20151;-73
2021/10/07 10:34:19;;;;;;;5.20;3.10;;;;;;;-145.80;100.00;59141.28;4961379;28;20069;-74
2021/10/07 10:36:49;;;;;;;5.28;3.42;;;;;;;-145.80;100.00;59141.28;4962783;28;20779;-76
2021/10/07 10:39:26;;;;;;;9.02;3.42;;;;;;;-145.80;100.00;59141.28;4947388;28;20747;-75
2021/10/07 10:41:58;;;;;;;4.47;2.80;;;;;;;-145.80;100.00;59141.28;4960306;28;20090;-73
2021/10/07 10:44:41;;;;;;;6.53;3.10;;;;;;;-145.80;100.00;59141.28;4953006;28;20066;-73
2021/10/07 10:47:18;;;;;;;4.43;2.70;;;;;;;-145.80;100.00;59141.28;4951250;28;20065;-76
2021/10/07 10:50:14;;;;;;;4.28;2.70;;;;;;;-145.80;100.00;59141.28;4974083;28;20059;-74
2021/10/07 10:52:52;;;;;;;5.10;3.63;;;;;;;-145.80;100.00;59141.28;4969416;28;20054;-77
2021/10/07 10:55:24;;;;;;;4.97;3.70;;;;;;;-145.80;100.00;59141.28;4981836;28;20058;-74
2021/10/07 10:58:00;;;;;;;6.43;3.83;;;;;;;-145.80;100.00;59141.28;4965006;28;20061;-77
2021/10/07 11:00:31;;;;;;;4.47;3.08;;;;;;;-145.80;100.00;59141.28;4959050;28;20047;-74
2021/10/07 11:03:19;;;;;;;5.15;3.38;;;;;;;-145.80;100.00;59141.28;4961597;28;20062;-73
2021/10/07 11:05:56;;;;;;;6.75;3.38;;;;;;;-145.80;100.00;59141.28;4976706;28;20058;-74
2021/10/07 11:08:25;;;;;;;6.43;3.55;;;;;;;-145.80;100.00;59141.28;4963086;28;20062;-75
2021/10/07 11:10:56;;;;;;;4.47;3.13;;;;;;;-145.80;100.00;59141.28;4963401;28;20050;-75
2021/10/07 11:13:25;;;;;;;10.93;3.58;;;;;;;-145.80;100.00;59141.28;4956336;28;20117;-76
2021/10/07 11:15:56;;;;;;;5.80;3.50;;;;;;;-145.80;100.00;59141.28;4962223;28;20051;-74
2021/10/07 11:18:26;;;;;;;5.35;3.35;;;;;;;-145.80;100.00;59141.28;4960137;28;20062;-76
2021/10/07 11:20:56;;;;;;;7.25;3.42;;;;;;;-145.80;100.00;59141.28;4964918;28;20054;-76
2021/10/07 11:23:25;;;;;;;7.70;3.78;;;;;;;-145.80;100.00;59141.28;4954876;28;20639;-77